createdAt,value
2018-07-17T00:00:21.037Z,49.33
2018-07-17T00:05:05.754Z,49.98
2018-07-17T00:09:49.366Z,50.03
2018-07-17T00:14:36.309Z,49.11
2018-07-17T00:19:19.804Z,50.14
2018-07-17T00:24:04.330Z,49.96
2018-07-17T00:28:47.959Z,50.29
2018-07-17T00:33:35.043Z,50.18
2018-07-17T00:38:18.650Z,50.12
2018-07-17T00:43:03.293Z,51.25
2018-07-17T00:47:46.878Z,50.49
2018-07-17T00:52:31.390Z,50.71
2018-07-17T00:57:14.862Z,51.16
2018-07-17T01:02:03.696Z,51.66
2018-07-17T01:06:56.119Z,51.51
2018-07-17T01:11:44.966Z,50.75
2018-07-17T01:16:29.673Z,50.74
2018-07-17T01:21:13.249Z,50.73
2018-07-17T01:25:56.973Z,51.46
2018-07-17T01:30:40.621Z,50.45
2018-07-17T01:35:25.204Z,50.87
2018-07-17T01:40:08.670Z,51.00
2018-07-17T01:44:53.521Z,51.13
2018-07-17T01:49:37.703Z,51.81
2018-07-17T01:54:25.107Z,52.83
2018-07-17T01:59:08.647Z,50.98
2018-07-17T02:03:53.281Z,51.03
2018-07-17T02:08:36.796Z,50.72
2018-07-17T02:13:23.654Z,52.52
2018-07-17T02:18:07.182Z,52.62
2018-07-17T02:22:50.997Z,52.90
2018-07-17T02:27:34.519Z,52.20
2018-07-17T02:32:18.316Z,52.23
2018-07-17T02:37:01.970Z,53.46
2018-07-17T02:41:45.560Z,52.34
2018-07-17T02:46:32.197Z,51.60
2018-07-17T02:51:15.753Z,51.44
2018-07-17T02:56:02.701Z,50.75
2018-07-17T03:00:46.166Z,51.87
2018-07-17T03:05:29.738Z,52.50
2018-07-17T03:10:13.258Z,52.19
2018-07-17T03:15:02.651Z,52.69
2018-07-17T03:19:46.149Z,53.83
2018-07-17T03:24:30.721Z,54.68
2018-07-17T03:29:14.063Z,54.77
2018-07-17T03:34:01.540Z,54.64
2018-07-17T03:38:44.928Z,55.50
2018-07-17T03:43:29.724Z,55.40
2018-07-17T03:48:13.214Z,54.99
2018-07-17T03:52:59.809Z,55.76
2018-07-17T03:57:43.416Z,55.58
2018-07-17T04:02:27.101Z,55.24
2018-07-17T04:07:10.413Z,55.05
2018-07-17T04:11:54.986Z,54.90
2018-07-17T04:16:44.498Z,55.50
2018-07-17T04:21:28.058Z,55.08
2018-07-17T04:26:16.058Z,54.94
2018-07-17T04:30:59.594Z,56.25
2018-07-17T04:35:44.247Z,56.57
2018-07-17T04:40:27.827Z,56.59
2018-07-17T04:45:16.322Z,56.06
2018-07-17T04:49:59.726Z,56.32
2018-07-17T04:54:43.805Z,56.14
2018-07-17T04:59:27.328Z,55.39
2018-07-17T05:04:11.079Z,55.87
2018-07-17T05:08:54.570Z,55.20
2018-07-17T05:13:44.406Z,56.05
2018-07-17T05:18:28.010Z,56.65
2018-07-17T05:23:15.143Z,56.86
2018-07-17T05:27:58.420Z,56.51
2018-07-17T05:32:43.177Z,58.75
2018-07-17T05:37:26.603Z,58.48
2018-07-17T05:42:10.457Z,59.77
2018-07-17T05:46:53.943Z,57.75
2018-07-17T05:51:37.474Z,58.02
2018-07-17T05:56:21.269Z,59.27
2018-07-17T06:01:04.818Z,59.73
2018-07-17T06:05:52.022Z,60.69
2018-07-17T06:10:35.660Z,59.61
2018-07-17T06:15:22.565Z,60.97
2018-07-17T06:20:07.261Z,60.27
2018-07-17T06:24:54.205Z,59.83
2018-07-17T06:29:37.709Z,60.41
2018-07-17T06:34:25.032Z,61.07
2018-07-17T06:39:09.509Z,59.00
2018-07-17T06:43:53.970Z,56.77
2018-07-17T06:48:37.451Z,55.55
2018-07-17T06:53:23.949Z,55.15
2018-07-17T06:58:07.512Z,54.25
2018-07-17T07:02:54.054Z,53.92
2018-07-17T07:07:37.548Z,54.84
2018-07-17T07:12:22.021Z,54.76
2018-07-17T07:17:09.983Z,53.19
2018-07-17T07:22:00.869Z,53.87
2018-07-17T07:26:44.498Z,52.08
2018-07-17T07:31:31.217Z,51.30
2018-07-17T07:36:14.778Z,52.94
2018-07-17T07:40:59.088Z,53.25
2018-07-17T07:45:47.077Z,47.86
2018-07-17T07:50:31.338Z,47.81
2018-07-17T07:55:15.247Z,51.67
2018-07-17T07:59:59.809Z,51.23
2018-07-17T08:04:48.143Z,50.52
2018-07-17T08:09:31.785Z,50.77
2018-07-17T08:14:19.694Z,51.93
2018-07-17T08:19:05.281Z,51.44
2018-07-17T08:23:52.157Z,48.54
2018-07-17T08:28:35.532Z,48.76
2018-07-17T08:33:22.989Z,48.47
2018-07-17T08:38:06.626Z,46.53
2018-07-17T08:42:53.619Z,44.71
2018-07-17T08:47:37.173Z,45.40
2018-07-17T08:52:21.809Z,44.38
2018-07-17T08:57:05.441Z,43.09
2018-07-17T09:01:50.105Z,44.74
2018-07-17T09:06:33.662Z,47.83
2018-07-17T09:11:20.646Z,44.11
2018-07-17T09:16:04.272Z,45.07
2018-07-17T09:20:47.914Z,44.83
2018-07-17T09:25:31.589Z,45.62
2018-07-17T09:30:15.011Z,44.57
2018-07-17T09:34:59.522Z,45.03
2018-07-17T09:39:42.999Z,40.98
2018-07-17T09:44:27.612Z,45.14
2018-07-17T09:49:11.166Z,40.05
2018-07-17T09:53:54.863Z,40.91
2018-07-17T09:58:38.412Z,40.62
2018-07-17T10:03:22.978Z,42.58
2018-07-17T10:08:06.681Z,42.70
2018-07-17T10:12:53.756Z,41.56
2018-07-17T10:17:37.282Z,42.64
2018-07-17T10:22:22.837Z,41.12
2018-07-17T10:27:06.636Z,42.40
2018-07-17T10:31:51.185Z,43.63
2018-07-17T10:36:34.785Z,40.20
2018-07-17T10:41:19.716Z,41.55
2018-07-17T10:46:03.335Z,39.78
2018-07-17T10:50:46.885Z,41.40
2018-07-17T10:55:31.326Z,40.42
2018-07-17T11:00:17.766Z,41.43
2018-07-17T11:05:02.315Z,39.03
2018-07-17T11:09:46.489Z,41.30
2018-07-17T11:14:33.746Z,37.99
2018-07-17T11:19:17.373Z,39.85
2018-07-17T11:24:01.143Z,40.54
2018-07-17T11:28:44.705Z,41.29
2018-07-17T11:33:29.246Z,35.92
2018-07-17T11:38:14.603Z,37.94
2018-07-17T11:42:59.394Z,36.23
2018-07-17T11:47:43.032Z,38.48
2018-07-17T11:52:30.470Z,38.06
2018-07-17T11:57:14.153Z,37.91
2018-07-17T12:02:00.757Z,35.62
2018-07-17T12:06:44.286Z,37.14
2018-07-17T12:11:28.971Z,36.35
2018-07-17T12:16:12.628Z,33.75
2018-07-17T12:20:59.314Z,34.25
2018-07-17T12:25:42.823Z,33.39
2018-07-17T12:30:26.404Z,34.95
2018-07-17T12:35:09.953Z,31.83
2018-07-17T12:39:53.393Z,34.18
2018-07-17T12:44:37.977Z,36.63
2018-07-17T12:49:21.391Z,32.13
2018-07-17T12:54:05.149Z,33.09
2018-07-17T12:58:49.170Z,33.94
2018-07-17T13:03:34.445Z,35.21
2018-07-17T13:08:18.024Z,33.20
2018-07-17T13:13:04.738Z,33.93
2018-07-17T13:17:48.423Z,34.54
2018-07-17T13:22:34.800Z,34.85
2018-07-17T13:27:18.440Z,35.18
2018-07-17T13:32:03.017Z,36.54
2018-07-17T13:36:46.728Z,34.62
2018-07-17T13:41:36.428Z,36.10
2018-07-17T13:46:20.086Z,36.69
2018-07-17T13:51:04.856Z,39.24
2018-07-17T13:55:48.381Z,38.67
2018-07-17T14:00:35.233Z,38.15
2018-07-17T14:05:18.919Z,38.17
2018-07-17T14:10:02.489Z,40.21
2018-07-17T14:14:49.338Z,41.32
2018-07-17T14:19:32.997Z,40.77
2018-07-17T14:24:16.735Z,39.68
2018-07-17T14:29:00.207Z,41.02
2018-07-17T14:33:44.798Z,41.35
2018-07-17T14:38:28.238Z,41.38
2018-07-17T14:43:12.875Z,42.07
2018-07-17T14:47:56.393Z,42.62
2018-07-17T14:52:40.826Z,42.60
2018-07-17T14:57:24.361Z,43.54
2018-07-17T15:02:11.531Z,42.31
2018-07-17T15:06:55.162Z,46.18
2018-07-17T15:11:42.197Z,46.94
2018-07-17T15:16:25.705Z,46.14
2018-07-17T15:21:09.569Z,46.18
2018-07-17T15:25:53.058Z,45.99
2018-07-17T15:30:46.725Z,46.49
2018-07-17T15:35:30.353Z,45.92
2018-07-17T15:40:19.609Z,46.26
2018-07-17T15:49:54.107Z,46.14
2018-07-17T15:54:38.523Z,45.53
2018-07-17T15:59:22.000Z,46.29
2018-07-17T16:04:12.458Z,45.99
2018-07-17T16:08:56.860Z,45.76
2018-07-17T16:13:45.338Z,45.28
2018-07-17T16:18:30.037Z,45.72
2018-07-17T16:23:13.846Z,46.37
2018-07-17T16:28:01.454Z,47.18
2018-07-17T16:32:52.492Z,46.59
2018-07-17T16:37:39.907Z,47.36
2018-07-17T16:42:33.312Z,47.93
2018-07-17T16:47:21.043Z,47.89
2018-07-17T16:52:05.692Z,48.33
2018-07-17T16:56:49.165Z,47.82
2018-07-17T17:01:37.128Z,48.81
2018-07-17T17:06:20.778Z,48.59
2018-07-17T17:11:07.459Z,48.42
2018-07-17T17:15:51.064Z,48.40
2018-07-17T17:20:34.610Z,49.51
2018-07-17T17:25:18.151Z,49.17
2018-07-17T17:30:01.887Z,49.29
2018-07-17T17:34:45.345Z,49.41
2018-07-17T17:39:29.076Z,48.63
2018-07-17T17:44:13.359Z,48.93
2018-07-17T17:48:56.958Z,49.44
2018-07-17T17:53:46.917Z,49.90
2018-07-17T17:58:30.411Z,51.83
2018-07-17T18:03:17.746Z,51.67
2018-07-17T18:08:01.254Z,51.68
2018-07-17T18:12:45.812Z,51.99
2018-07-17T18:17:33.508Z,53.23
2018-07-17T18:22:17.870Z,52.42
2018-07-17T18:27:01.435Z,53.20
2018-07-17T18:31:48.464Z,52.41
2018-07-17T18:36:36.429Z,53.23
2018-07-17T18:41:41.885Z,53.11
2018-07-17T18:46:40.958Z,52.90
2018-07-17T18:51:27.819Z,53.14
2018-07-17T18:56:12.569Z,53.33
2018-07-17T19:01:00.058Z,53.93
2018-07-17T19:05:43.445Z,53.60
2018-07-17T19:10:27.076Z,53.36
2018-07-17T19:15:10.585Z,53.58
2018-07-17T19:19:54.148Z,53.63
2018-07-17T19:24:37.749Z,53.41
2018-07-17T19:29:21.689Z,54.24
2018-07-17T19:34:10.857Z,54.25
2018-07-17T19:38:54.443Z,54.73
2018-07-17T19:43:39.110Z,53.65
2018-07-17T19:48:22.638Z,53.39
2018-07-17T19:53:06.363Z,53.73
2018-07-17T19:57:49.961Z,54.62
2018-07-17T20:02:36.633Z,54.41
2018-07-17T20:07:20.181Z,54.19
2018-07-17T20:12:07.444Z,53.85
2018-07-17T20:16:50.800Z,53.10
2018-07-17T20:21:40.490Z,53.64
2018-07-17T20:26:27.536Z,53.49
2018-07-17T20:31:11.307Z,52.42
2018-07-17T20:35:54.981Z,51.74
2018-07-17T20:40:38.873Z,51.68
2018-07-17T20:45:22.367Z,51.57
2018-07-17T20:50:06.126Z,51.88
2018-07-17T20:54:49.677Z,50.58
2018-07-17T20:59:33.369Z,51.86
2018-07-17T21:04:29.056Z,52.14
2018-07-17T21:09:12.512Z,51.47
2018-07-17T21:13:56.041Z,52.24
2018-07-17T21:18:39.706Z,51.47
2018-07-17T21:23:23.435Z,51.93
2018-07-17T21:28:07.235Z,52.03
2018-07-17T21:32:50.952Z,51.92
2018-07-17T21:37:34.495Z,51.30
2018-07-17T21:42:18.244Z,50.58
2018-07-17T21:47:01.581Z,51.06
2018-07-17T21:51:45.243Z,50.99
2018-07-17T21:56:28.875Z,51.77
2018-07-17T22:01:12.499Z,52.50
2018-07-17T22:05:55.976Z,52.04
2018-07-17T22:10:42.682Z,50.76
2018-07-17T22:15:26.343Z,50.82
2018-07-17T22:20:09.967Z,51.10
2018-07-17T22:24:53.510Z,51.07
2018-07-17T22:29:38.051Z,51.30
2018-07-17T22:34:21.563Z,51.59
2018-07-17T22:39:07.838Z,50.85
2018-07-17T22:43:51.513Z,50.66
2018-07-17T22:48:34.915Z,52.05
2018-07-17T22:53:18.570Z,50.96
2018-07-17T22:58:02.070Z,51.14
2018-07-17T23:02:45.652Z,51.00
2018-07-17T23:07:29.145Z,50.60
2018-07-17T23:12:12.730Z,51.40
2018-07-17T23:16:56.173Z,52.66
2018-07-17T23:21:40.779Z,51.73
2018-07-17T23:26:24.432Z,52.95
2018-07-17T23:31:11.681Z,52.56
2018-07-17T23:35:55.053Z,52.11
2018-07-17T23:40:38.971Z,53.67
2018-07-17T23:45:23.132Z,53.26
2018-07-17T23:50:06.868Z,53.38
2018-07-17T23:54:50.550Z,52.96
2018-07-17T23:59:35.170Z,53.81
